Time;durP1;ratioP1;P1;durP2;ratioP2;P2;SDS_P1;SDS_P2;PMS_P1;PMS_P2;Temp;Humidity;BMP_temperature;BMP_pressure;BME280_temperature;BME280_humidity;BME280_pressure;Samples;Min_cycle;Max_cycle;Signal;HPM_P1;HPM_P2
2021/12/26 00:00:19;;;;;;;;;;;;;;;;;;5063307;28;1387;-80
2021/12/26 00:02:44;;;;;;;;;;;;;;;;;;5066439;28;1331;-80
2021/12/26 00:05:10;;;;;;;;;;;;;;;;;;5066188;28;1221;-81
2021/12/26 00:07:36;;;;;;;;;;;;;;;;;;5068040;28;1882;-81
2021/12/26 00:10:01;;;;;;;;;;;;;;;;;;5067442;28;1198;-81
2021/12/26 00:12:27;;;;;;;;;;;;;;;;;;5066159;28;1289;-80
2021/12/26 00:14:52;;;;;;;;;;;;;;;;;;5064692;28;1149;-81
2021/12/26 00:17:17;;;;;;;;;;;;;;;;;;5065028;28;1183;-81
2021/12/26 00:19:43;;;;;;;;;;;;;;;;;;5066733;28;1200;-81
2021/12/26 00:22:11;;;;;;;;;;;;;;;;;;5049983;28;1263;-79
2021/12/26 00:24:37;;;;;;;;;;;;;;;;;;5066233;28;1172;-80
2021/12/26 00:27:02;;;;;;;;;;;;;;;;;;5050196;28;1890;-79
2021/12/26 00:29:27;;;;;;;;;;;;;;;;;;5047905;28;1121;-80
2021/12/26 00:31:52;;;;;;;;;;;;;;;;;;5067182;28;1250;-81
2021/12/26 00:34:18;;;;;;;;;;;;;;;;;;5064668;28;1193;-80
2021/12/26 00:36:43;;;;;;;;;;;;;;;;;;5085384;28;1197;-80
2021/12/26 00:39:09;;;;;;;;;;;;;;;;;;5053925;28;1378;-81
2021/12/26 00:41:35;;;;;;;;;;;;;;;;;;5052123;28;1266;-81
2021/12/26 00:44:01;;;;;;;;;;;;;;;;;;5052986;28;1142;-80
2021/12/26 00:46:26;;;;;;;;;;;;;;;;;;5051005;28;1910;-82
2021/12/26 00:48:51;;;;;;;;;;;;;;;;;;5042328;28;1168;-81
2021/12/26 00:51:17;;;;;;;;;;;;;;;;;;5031405;28;1249;-81
2021/12/26 00:53:42;;;;;;;;;;;;;;;;;;5065704;28;1483;-81
2021/12/26 00:56:07;;;;;;;;;;;;;;;;;;5065324;28;1213;-81
2021/12/26 00:58:33;;;;;;;;;;;;;;;;;;5044646;28;1211;-81
2021/12/26 01:00:58;;;;;;;;;;;;;;;;;;5032811;28;1388;-80
2021/12/26 01:03:23;;;;;;;;;;;;;;;;;;5045754;28;1204;-81
2021/12/26 01:05:50;;;;;;;;;;;;;;;;;;5036826;28;1878;-80
2021/12/26 01:08:18;;;;;;;;;;;;;;;;;;5059858;28;1607;-80
2021/12/26 01:10:43;;;;;;;;;;;;;;;;;;5052459;28;1437;-81
2021/12/26 01:13:34;;;;;;;;;;;;;;;;;;5052376;28;1212;-82
2021/12/26 01:15:58;;;;;;;;;;;;;;;;;;5067907;28;1142;-80
2021/12/26 01:18:24;;;;;;;;;;;;;;;;;;5048969;28;1320;-81
2021/12/26 01:21:05;;;;;;;;;;;;;;;;;;5070520;28;1221;-80
2021/12/26 01:23:30;;;;;;;;;;;;;;;;;;5055270;28;1236;-80
2021/12/26 01:25:56;;;;;;;;;;;;;;;;;;5072284;28;1898;-80
2021/12/26 01:28:23;;;;;;;;;;;;;;;;;;5066408;28;1171;-80
2021/12/26 01:30:48;;;;;;;;;;;;;;;;;;5083367;28;1172;-81
2021/12/26 01:33:17;;;;;;;;;;;;;;;;;;5057295;28;1248;-79
2021/12/26 01:35:42;;;;;;;;;;;;;;;;;;5066156;28;1161;-80
2021/12/26 01:38:13;;;;;;;;;;;;;;;;;;5064633;28;1357;-80
2021/12/26 01:40:40;;;;;;;;;;;;;;;;;;5058621;28;1705;-80
2021/12/26 01:43:06;;;;;;;;;;;;;;;;;;5079668;28;1156;-80
2021/12/26 01:45:31;;;;;;;;;;;;;;;;;;5048303;28;1934;-81
2021/12/26 01:47:58;;;;;;;;;;;;;;;;;;5032381;28;1279;-81
2021/12/26 01:50:23;;;;;;;;;;;;;;;;;;5049196;28;1289;-80
2021/12/26 01:52:49;;;;;;;;;;;;;;;;;;5059463;28;1179;-81
2021/12/26 01:57:58;;;;;;;;;;;;;;;;;;5058948;28;976;-81
2021/12/26 02:00:25;;;;;;;;;;;;;;;;;;5034666;28;1184;-80
2021/12/26 02:02:50;;;;;;;;;;;;;;;;;;5071889;28;1160;-81
2021/12/26 02:05:17;;;;;;;;;;;;;;;;;;5052093;28;1277;-81
2021/12/26 02:07:43;;;;;;;;;;;;;;;;;;5062767;28;1894;-80
2021/12/26 02:10:08;;;;;;;;;;;;;;;;;;5047845;28;1258;-80
2021/12/26 02:12:33;;;;;;;;;;;;;;;;;;5050306;28;1058;-80
2021/12/26 02:14:59;;;;;;;;;;;;;;;;;;5047266;28;1206;-79
2021/12/26 02:17:25;;;;;;;;;;;;;;;;;;5056980;28;1166;-80
2021/12/26 02:19:53;;;;;;;;;;;;;;;;;;5050671;28;1154;-80
2021/12/26 02:22:25;;;;;;;;;;;;;;;;;;5037549;28;1507;-80
2021/12/26 02:27:32;;;;;;;;;;;;;;;;;;5059195;28;1971;-80
2021/12/26 02:30:03;;;;;;;;;;;;;;;;;;5066145;28;1243;-80
2021/12/26 02:32:29;;;;;;;;;;;;;;;;;;5073069;28;1109;-80
2021/12/26 02:34:55;;;;;;;;;;;;;;;;;;5033205;28;1181;-79
2021/12/26 02:37:20;;;;;;;;;;;;;;;;;;5057617;28;1232;-79
2021/12/26 02:39:46;;;;;;;;;;;;;;;;;;5047730;28;1343;-80
2021/12/26 02:42:11;;;;;;;;;;;;;;;;;;5037810;28;1298;-80
2021/12/26 02:44:38;;;;;;;;;;;;;;;;;;5038479;28;1232;-80
2021/12/26 02:47:03;;;;;;;;;;;;;;;;;;5064150;28;1914;-80
2021/12/26 02:49:28;;;;;;;;;;;;;;;;;;5038881;28;1239;-79
2021/12/26 02:51:54;;;;;;;;;;;;;;;;;;5038780;28;1283;-80
2021/12/26 02:54:22;;;;;;;;;;;;;;;;;;5074384;28;1069;-80
2021/12/26 02:56:47;;;;;;;;;;;;;;;;;;5060860;28;1281;-80
2021/12/26 02:59:13;;;;;;;;;;;;;;;;;;5049762;28;1273;-80
2021/12/26 03:01:38;;;;;;;;;;;;;;;;;;5081435;28;1196;-80
2021/12/26 03:04:04;;;;;;;;;;;;;;;;;;5058719;28;1376;-79
2021/12/26 03:06:38;;;;;;;;;;;;;;;;;;5064513;28;1975;-80
2021/12/26 03:09:04;;;;;;;;;;;;;;;;;;5075272;28;1026;-80
2021/12/26 03:11:30;;;;;;;;;;;;;;;;;;5051977;28;1274;-79
2021/12/26 03:13:56;;;;;;;;;;;;;;;;;;5066355;28;1204;-79
2021/12/26 03:16:21;;;;;;;;;;;;;;;;;;5066383;28;1518;-80
2021/12/26 03:18:46;;;;;;;;;;;;;;;;;;5066587;28;1090;-79
2021/12/26 03:21:12;;;;;;;;;;;;;;;;;;5045942;28;1220;-79
2021/12/26 03:23:37;;;;;;;;;;;;;;;;;;5029411;28;1307;-80
2021/12/26 03:26:04;;;;;;;;;;;;;;;;;;5075161;28;1909;-78
2021/12/26 03:28:30;;;;;;;;;;;;;;;;;;5059832;28;1303;-80
2021/12/26 03:30:56;;;;;;;;;;;;;;;;;;5058900;28;1393;-79
2021/12/26 03:33:21;;;;;;;;;;;;;;;;;;5045518;28;1385;-80
2021/12/26 03:35:47;;;;;;;;;;;;;;;;;;5067953;28;1142;-79
2021/12/26 03:38:13;;;;;;;;;;;;;;;;;;5049249;28;1348;-80
2021/12/26 03:40:38;;;;;;;;;;;;;;;;;;5062594;28;1420;-79
2021/12/26 03:43:04;;;;;;;;;;;;;;;;;;5049111;28;1334;-79
2021/12/26 03:45:31;;;;;;;;;;;;;;;;;;5065464;28;1385;-80
2021/12/26 03:47:57;;;;;;;;;;;;;;;;;;5064913;28;1276;-80
2021/12/26 03:50:23;;;;;;;;;;;;;;;;;;5050247;28;1260;-82
2021/12/26 03:52:50;;;;;;;;;;;;;;;;;;5049661;28;1456;-79
2021/12/26 03:55:16;;;;;;;;;;;;;;;;;;5051441;28;1327;-81
2021/12/26 03:57:41;;;;;;;;;;;;;;;;;;5064511;28;1022;-80
2021/12/26 04:00:08;;;;;;;;;;;;;;;;;;5082773;28;1251;-80
2021/12/26 04:02:33;;;;;;;;;;;;;;;;;;5048675;28;1358;-80
2021/12/26 04:04:59;;;;;;;;;;;;;;;;;;5067686;28;1127;-80
2021/12/26 04:07:24;;;;;;;;;;;;;;;;;;5050218;28;1913;-81
2021/12/26 04:09:49;;;;;;;;;;;;;;;;;;5051124;28;1196;-80
2021/12/26 04:12:15;;;;;;;;;;;;;;;;;;5052511;28;1379;-80
2021/12/26 04:14:40;;;;;;;;;;;;;;;;;;5047160;28;1247;-78
2021/12/26 04:17:15;;;;;;;;;;;;;;;;;;5082150;28;1205;-78
2021/12/26 04:19:40;;;;;;;;;;;;;;;;;;5049979;28;1241;-79
2021/12/26 04:22:08;;;;;;;;;;;;;;;;;;5065860;28;1136;-80
2021/12/26 04:24:37;;;;;;;;;;;;;;;;;;5049607;28;1085;-80
2021/12/26 04:27:02;;;;;;;;;;;;;;;;;;5066711;28;1882;-80
2021/12/26 04:29:27;;;;;;;;;;;;;;;;;;5065504;28;1263;-80
2021/12/26 04:31:53;;;;;;;;;;;;;;;;;;5064655;28;1301;-79
2021/12/26 04:34:18;;;;;;;;;;;;;;;;;;5065022;28;1336;-80
2021/12/26 04:36:43;;;;;;;;;;;;;;;;;;5066633;28;1382;-80
2021/12/26 04:39:09;;;;;;;;;;;;;;;;;;5070325;28;1153;-79
2021/12/26 04:41:38;;;;;;;;;;;;;;;;;;5069068;28;1199;-80
2021/12/26 04:44:03;;;;;;;;;;;;;;;;;;5065800;28;1361;-80
2021/12/26 04:46:28;;;;;;;;;;;;;;;;;;5067462;28;1965;-80
2021/12/26 04:48:54;;;;;;;;;;;;;;;;;;5046142;28;1290;-79
2021/12/26 04:51:19;;;;;;;;;;;;;;;;;;5050679;28;1161;-80
2021/12/26 04:53:45;;;;;;;;;;;;;;;;;;5065235;28;1224;-79
2021/12/26 04:56:11;;;;;;;;;;;;;;;;;;5067631;28;1187;-80
2021/12/26 04:58:42;;;;;;;;;;;;;;;;;;5067452;28;1222;-79
2021/12/26 05:01:07;;;;;;;;;;;;;;;;;;5085071;28;1080;-79
2021/12/26 05:03:33;;;;;;;;;;;;;;;;;;5088373;28;1230;-80
2021/12/26 05:05:59;;;;;;;;;;;;;;;;;;5070126;28;1898;-79
2021/12/26 05:08:24;;;;;;;;;;;;;;;;;;5071243;28;1173;-79
2021/12/26 05:10:49;;;;;;;;;;;;;;;;;;5069015;28;1157;-80
2021/12/26 05:13:15;;;;;;;;;;;;;;;;;;5089828;28;1180;-80
2021/12/26 05:15:41;;;;;;;;;;;;;;;;;;5050681;28;1288;-79
2021/12/26 05:18:06;;;;;;;;;;;;;;;;;;5068955;28;1287;-80
2021/12/26 05:20:32;;;;;;;;;;;;;;;;;;5070189;28;1289;-80
2021/12/26 05:22:58;;;;;;;;;;;;;;;;;;5069043;28;1270;-79
2021/12/26 05:25:24;;;;;;;;;;;;;;;;;;5072261;28;1284;-79
2021/12/26 05:27:51;;;;;;;;;;;;;;;;;;5086692;28;1946;-79
2021/12/26 05:30:17;;;;;;;;;;;;;;;;;;5086300;28;1128;-79
2021/12/26 05:32:43;;;;;;;;;;;;;;;;;;5068252;28;1195;-80
2021/12/26 05:35:10;;;;;;;;;;;;;;;;;;5070135;28;1270;-80
2021/12/26 05:37:35;;;;;;;;;;;;;;;;;;5088329;28;1160;-80
2021/12/26 05:40:02;;;;;;;;;;;;;;;;;;5068269;28;1187;-80
2021/12/26 05:42:28;;;;;;;;;;;;;;;;;;5087023;28;1172;-80
2021/12/26 05:44:53;;;;;;;;;;;;;;;;;;5067078;28;1273;-80
2021/12/26 05:47:19;;;;;;;;;;;;;;;;;;5067652;28;1969;-80
2021/12/26 05:49:45;;;;;;;;;;;;;;;;;;5067580;28;1403;-79
2021/12/26 05:52:10;;;;;;;;;;;;;;;;;;5050872;28;1220;-80
2021/12/26 05:54:35;;;;;;;;;;;;;;;;;;5053289;28;1149;-79
2021/12/26 05:57:01;;;;;;;;;;;;;;;;;;5065888;28;1161;-80
2021/12/26 05:59:27;;;;;;;;;;;;;;;;;;5058642;28;1338;-79
2021/12/26 06:01:52;;;;;;;;;;;;;;;;;;5060462;28;1184;-79
2021/12/26 06:04:17;;;;;;;;;;;;;;;;;;5073528;28;1176;-80
2021/12/26 06:06:47;;;;;;;;;;;;;;;;;;5060411;28;1959;-80
2021/12/26 06:09:12;;;;;;;;;;;;;;;;;;5053188;28;1211;-80
2021/12/26 06:11:38;;;;;;;;;;;;;;;;;;5072062;28;1313;-80
2021/12/26 06:14:03;;;;;;;;;;;;;;;;;;5072258;28;1311;-79
2021/12/26 06:16:29;;;;;;;;;;;;;;;;;;5052181;28;1329;-80
2021/12/26 06:18:54;;;;;;;;;;;;;;;;;;5050097;28;1183;-79
2021/12/26 06:21:19;;;;;;;;;;;;;;;;;;5057863;28;1288;-80
2021/12/26 06:23:50;;;;;;;;;;;;;;;;;;5060300;28;1263;-80
2021/12/26 06:26:16;;;;;;;;;;;;;;;;;;5067048;28;1936;-79
2021/12/26 06:28:41;;;;;;;;;;;;;;;;;;5038761;28;1196;-79
2021/12/26 06:31:06;;;;;;;;;;;;;;;;;;5066997;28;1305;-80
2021/12/26 06:33:32;;;;;;;;;;;;;;;;;;5067654;28;1149;-80
2021/12/26 06:35:57;;;;;;;;;;;;;;;;;;5084762;28;1314;-79
2021/12/26 06:38:25;;;;;;;;;;;;;;;;;;5067988;28;1157;-80
2021/12/26 06:40:51;;;;;;;;;;;;;;;;;;5086727;28;1216;-80
2021/12/26 06:43:16;;;;;;;;;;;;;;;;;;5047554;28;1382;-79
2021/12/26 06:45:41;;;;;;;;;;;;;;;;;;5086677;28;2024;-79
2021/12/26 06:48:07;;;;;;;;;;;;;;;;;;5065387;28;1287;-79
2021/12/26 06:50:33;;;;;;;;;;;;;;;;;;5087465;28;1227;-79
2021/12/26 06:52:58;;;;;;;;;;;;;;;;;;5084619;28;1085;-79
2021/12/26 06:55:24;;;;;;;;;;;;;;;;;;5068059;28;1275;-79
2021/12/26 06:57:50;;;;;;;;;;;;;;;;;;5069856;28;1362;-79
2021/12/26 07:00:16;;;;;;;;;;;;;;;;;;5046384;28;1106;-79
2021/12/26 07:02:42;;;;;;;;;;;;;;;;;;5083386;28;1169;-79
2021/12/26 07:05:08;;;;;;;;;;;;;;;;;;5063351;28;1452;-79
2021/12/26 07:07:33;;;;;;;;;;;;;;;;;;5083459;28;1886;-79
2021/12/26 07:09:59;;;;;;;;;;;;;;;;;;5052834;28;1277;-79
2021/12/26 07:12:25;;;;;;;;;;;;;;;;;;5055951;28;1191;-80
2021/12/26 07:14:52;;;;;;;;;;;;;;;;;;5072917;28;1258;-80
2021/12/26 07:17:18;;;;;;;;;;;;;;;;;;5053029;28;1255;-83
2021/12/26 07:19:44;;;;;;;;;;;;;;;;;;5072029;28;1247;-79
2021/12/26 07:22:09;;;;;;;;;;;;;;;;;;5064508;28;1246;-78
2021/12/26 07:24:34;;;;;;;;;;;;;;;;;;5066657;28;1398;-79
2021/12/26 07:27:00;;;;;;;;;;;;;;;;;;5050367;28;1949;-79
2021/12/26 07:29:25;;;;;;;;;;;;;;;;;;5066525;28;1113;-80
2021/12/26 07:31:50;;;;;;;;;;;;;;;;;;5068261;28;1229;-79
2021/12/26 07:34:16;;;;;;;;;;;;;;;;;;5081932;28;1386;-79
2021/12/26 07:36:41;;;;;;;;;;;;;;;;;;5052486;28;1231;-79
2021/12/26 07:39:06;;;;;;;;;;;;;;;;;;5048607;28;1206;-79
2021/12/26 07:41:32;;;;;;;;;;;;;;;;;;5067996;28;1146;-78
2021/12/26 07:43:58;;;;;;;;;;;;;;;;;;5049034;28;1344;-79
2021/12/26 07:46:23;;;;;;;;;;;;;;;;;;5066856;28;1910;-80
2021/12/26 07:48:49;;;;;;;;;;;;;;;;;;5065395;28;1499;-77
2021/12/26 07:51:14;;;;;;;;;;;;;;;;;;5049480;28;1297;-78
2021/12/26 07:53:40;;;;;;;;;;;;;;;;;;5067891;28;1319;-78
2021/12/26 07:56:05;;;;;;;;;;;;;;;;;;5065277;28;1179;-78
2021/12/26 07:58:30;;;;;;;;;;;;;;;;;;5066948;28;1216;-78
2021/12/26 08:01:08;;;;;;;;;;;;;;;;;;5082868;28;1231;-78
2021/12/26 08:03:34;;;;;;;;;;;;;;;;;;5049897;28;1267;-79
2021/12/26 08:06:02;;;;;;;;;;;;;;;;;;5065646;28;1902;-79
2021/12/26 08:08:27;;;;;;;;;;;;;;;;;;5051298;28;1360;-80
2021/12/26 08:10:52;;;;;;;;;;;;;;;;;;5066089;28;1232;-78
2021/12/26 08:13:17;;;;;;;;;;;;;;;;;;5048617;28;1509;-78
2021/12/26 08:15:43;;;;;;;;;;;;;;;;;;5065407;28;1172;-79
2021/12/26 08:18:08;;;;;;;;;;;;;;;;;;5063623;28;1370;-79
2021/12/26 08:20:33;;;;;;;;;;;;;;;;;;5049464;28;1186;-80
2021/12/26 08:23:02;;;;;;;;;;;;;;;;;;5066983;28;1231;-80
2021/12/26 08:25:28;;;;;;;;;;;;;;;;;;5066826;28;1162;-80
2021/12/26 08:27:53;;;;;;;;;;;;;;;;;;5066293;28;1945;-77
2021/12/26 08:30:20;;;;;;;;;;;;;;;;;;5063638;28;1132;-77
2021/12/26 08:32:50;;;;;;;;;;;;;;;;;;5048805;28;1283;-80
2021/12/26 08:35:15;;;;;;;;;;;;;;;;;;5067196;28;1227;-79
2021/12/26 08:37:41;;;;;;;;;;;;;;;;;;5070601;28;1209;-79
2021/12/26 08:40:07;;;;;;;;;;;;;;;;;;5070647;28;1172;-79
2021/12/26 08:42:32;;;;;;;;;;;;;;;;;;5069593;28;1276;-79
2021/12/26 08:44:59;;;;;;;;;;;;;;;;;;5052121;28;1221;-78
2021/12/26 08:47:25;;;;;;;;;;;;;;;;;;5050629;28;1978;-79
2021/12/26 08:49:53;;;;;;;;;;;;;;;;;;5052679;28;1180;-79
2021/12/26 08:52:19;;;;;;;;;;;;;;;;;;5087446;28;1172;-81
2021/12/26 08:54:44;;;;;;;;;;;;;;;;;;5070680;28;1245;-80
2021/12/26 08:57:09;;;;;;;;;;;;;;;;;;5069476;28;1132;-80
2021/12/26 08:59:36;;;;;;;;;;;;;;;;;;5069480;28;1343;-80
2021/12/26 09:02:12;;;;;;;;;;;;;;;;;;5088931;28;1251;-80
2021/12/26 09:04:38;;;;;;;;;;;;;;;;;;5070051;28;1056;-80
2021/12/26 09:07:07;;;;;;;;;;;;;;;;;;5070486;28;1906;-78
2021/12/26 09:09:32;;;;;;;;;;;;;;;;;;5069688;28;1179;-82
2021/12/26 09:11:58;;;;;;;;;;;;;;;;;;5071690;28;1179;-79
2021/12/26 09:14:23;;;;;;;;;;;;;;;;;;5067467;28;1165;-79
2021/12/26 09:16:48;;;;;;;;;;;;;;;;;;5054942;28;1188;-80
2021/12/26 09:19:14;;;;;;;;;;;;;;;;;;5067665;28;1367;-80
2021/12/26 09:21:39;;;;;;;;;;;;;;;;;;5071117;28;1189;-80
2021/12/26 09:24:13;;;;;;;;;;;;;;;;;;5069939;28;1145;-80
2021/12/26 09:26:39;;;;;;;;;;;;;;;;;;5070428;28;1890;-80
2021/12/26 09:29:05;;;;;;;;;;;;;;;;;;5058390;28;1232;-79
2021/12/26 09:31:30;;;;;;;;;;;;;;;;;;5056179;28;1199;-79
2021/12/26 09:33:55;;;;;;;;;;;;;;;;;;5070732;28;1370;-79
2021/12/26 09:36:21;;;;;;;;;;;;;;;;;;5070172;28;1461;-78
2021/12/26 09:38:46;;;;;;;;;;;;;;;;;;5054378;28;1398;-80
2021/12/26 09:41:12;;;;;;;;;;;;;;;;;;5069644;28;1239;-79
2021/12/26 09:43:37;;;;;;;;;;;;;;;;;;5071513;28;1350;-79
2021/12/26 09:46:03;;;;;;;;;;;;;;;;;;5050768;28;1965;-79
2021/12/26 09:48:28;;;;;;;;;;;;;;;;;;5067935;28;1326;-78
2021/12/26 09:50:53;;;;;;;;;;;;;;;;;;5069826;28;1149;-79
2021/12/26 09:53:20;;;;;;;;;;;;;;;;;;5087659;28;1117;-80
2021/12/26 09:55:45;;;;;;;;;;;;;;;;;;5070563;28;1271;-80
2021/12/26 09:58:14;;;;;;;;;;;;;;;;;;5069827;28;1144;-79
2021/12/26 10:00:41;;;;;;;;;;;;;;;;;;5068562;28;1303;-80
2021/12/26 10:03:12;;;;;;;;;;;;;;;;;;5085998;28;1231;-78
2021/12/26 10:05:56;;;;;;;;;;;;;;;;;;5069523;28;1219;-79
2021/12/26 10:08:21;;;;;;;;;;;;;;;;;;5068017;28;1337;-78
2021/12/26 10:11:05;;;;;;;;;;;;;;;;;;5053470;28;1189;-79
2021/12/26 10:13:37;;;;;;;;;;;;;;;;;;5067421;28;1172;-78
2021/12/26 10:16:02;;;;;;;;;;;;;;;;;;5066597;28;1227;-78
2021/12/26 10:18:28;;;;;;;;;;;;;;;;;;5067659;28;1273;-79
2021/12/26 10:20:54;;;;;;;;;;;;;;;;;;5086159;28;1241;-80
2021/12/26 10:23:23;;;;;;;;;;;;;;;;;;5066650;28;1169;-79
2021/12/26 10:25:49;;;;;;;;;;;;;;;;;;5088802;28;1886;-79
2021/12/26 10:28:17;;;;;;;;;;;;;;;;;;5068823;28;1148;-79
2021/12/26 10:30:43;;;;;;;;;;;;;;;;;;5067422;28;1165;-79
2021/12/26 10:33:09;;;;;;;;;;;;;;;;;;5068474;28;1294;-79
2021/12/26 10:35:34;;;;;;;;;;;;;;;;;;5085541;28;1160;-79
2021/12/26 10:37:59;;;;;;;;;;;;;;;;;;5050867;28;1221;-78
2021/12/26 10:40:31;;;;;;;;;;;;;;;;;;5083661;28;1160;-78
2021/12/26 10:42:57;;;;;;;;;;;;;;;;;;5077154;28;1271;-79
2021/12/26 10:45:25;;;;;;;;;;;;;;;;;;5063621;28;1029;-77
2021/12/26 10:47:52;;;;;;;;;;;;;;;;;;5048635;28;1909;-79
2021/12/26 10:50:25;;;;;;;;;;;;;;;;;;5047581;28;1215;-79
2021/12/26 10:52:53;;;;;;;;;;;;;;;;;;5049057;28;1293;-78
2021/12/26 10:55:23;;;;;;;;;;;;;;;;;;5047063;28;1256;-80
2021/12/26 10:57:50;;;;;;;;;;;;;;;;;;5050229;28;1363;-78
2021/12/26 11:00:31;;;;;;;;;;;;;;;;;;5046726;28;1414;-79
2021/12/26 11:03:00;;;;;;;;;;;;;;;;;;5078732;28;1410;-79
2021/12/26 11:05:29;;;;;;;;;;;;;;;;;;5048287;28;1229;-79
2021/12/26 11:07:56;;;;;;;;;;;;;;;;;;5066615;28;1870;-79
2021/12/26 11:10:23;;;;;;;;;;;;;;;;;;5047236;28;1290;-78
2021/12/26 11:12:51;;;;;;;;;;;;;;;;;;5049918;28;1339;-78
2021/12/26 11:15:26;;;;;;;;;;;;;;;;;;5048482;28;1180;-78
2021/12/26 11:17:56;;;;;;;;;;;;;;;;;;5046904;28;1290;-78
2021/12/26 11:20:23;;;;;;;;;;;;;;;;;;5047255;28;1147;-78
2021/12/26 11:22:49;;;;;;;;;;;;;;;;;;5048399;28;1263;-78
2021/12/26 11:25:15;;;;;;;;;;;;;;;;;;5031666;28;1201;-77
2021/12/26 11:27:40;;;;;;;;;;;;;;;;;;5030459;28;1985;-78
2021/12/26 11:30:07;;;;;;;;;;;;;;;;;;5030002;28;1637;-78
2021/12/26 11:32:33;;;;;;;;;;;;;;;;;;5046232;28;1311;-77
2021/12/26 11:34:58;;;;;;;;;;;;;;;;;;5047838;28;1306;-77
2021/12/26 11:37:24;;;;;;;;;;;;;;;;;;5046562;28;1169;-77
2021/12/26 11:39:51;;;;;;;;;;;;;;;;;;5047333;28;1229;-77
2021/12/26 11:42:32;;;;;;;;;;;;;;;;;;5049007;28;1453;-76
2021/12/26 11:45:13;;;;;;;;;;;;;;;;;;5084040;28;1184;-76
2021/12/26 11:47:41;;;;;;;;;;;;;;;;;;5082452;28;1946;-74
2021/12/26 11:50:13;;;;;;;;;;;;;;;;;;5066322;28;1283;-76
2021/12/26 11:52:38;;;;;;;;;;;;;;;;;;5081818;28;1138;-76
2021/12/26 11:55:13;;;;;;;;;;;;;;;;;;5065865;28;1169;-75
2021/12/26 11:57:51;;;;;;;;;;;;;;;;;;5063909;28;1240;-76
2021/12/26 12:00:16;;;;;;;;;;;;;;;;;;5082072;28;1157;-74
2021/12/26 12:02:50;;;;;;;;;;;;;;;;;;5061858;28;1445;-75
2021/12/26 12:05:36;;;;;;;;;;;;;;;;;;5065407;28;1208;-74
2021/12/26 12:08:03;;;;;;;;;;;;;;;;;;5065521;28;1902;-74
2021/12/26 12:10:55;;;;;;;;;;;;;;;;;;5063032;28;1165;-75
2021/12/26 12:13:26;;;;;;;;;;;;;;;;;;5085316;28;1126;-74
2021/12/26 12:15:52;;;;;;;;;;;;;;;;;;5063960;28;1230;-74
2021/12/26 12:18:30;;;;;;;;;;;;;;;;;;5064119;28;1401;-75
2021/12/26 12:21:14;;;;;;;;;;;;;;;;;;5083787;28;1224;-74
2021/12/26 12:23:57;;;;;;;;;;;;;;;;;;5082489;28;1227;-75
2021/12/26 12:26:42;;;;;;;;;;;;;;;;;;5065592;28;1894;-75
2021/12/26 12:29:08;;;;;;;;;;;;;;;;;;5063555;28;1281;-75
2021/12/26 12:31:33;;;;;;;;;;;;;;;;;;5063390;28;1225;-73
2021/12/26 12:34:09;;;;;;;;;;;;;;;;;;5082236;28;1078;-75
2021/12/26 12:36:36;;;;;;;;;;;;;;;;;;5061846;28;1304;-74
2021/12/26 12:39:30;;;;;;;;;;;;;;;;;;5064884;28;1279;-76
2021/12/26 12:41:55;;;;;;;;;;;;;;;;;;5061914;28;1418;-74
2021/12/26 12:44:31;;;;;;;;;;;;;;;;;;5063189;28;1413;-77
2021/12/26 12:46:56;;;;;;;;;;;;;;;;;;5065805;28;1921;-76
2021/12/26 12:49:39;;;;;;;;;;;;;;;;;;5064239;28;1252;-79
2021/12/26 12:52:08;;;;;;;;;;;;;;;;;;5069266;28;1159;-78
2021/12/26 12:54:34;;;;;;;;;;;;;;;;;;5084524;28;1152;-76
2021/12/26 12:57:01;;;;;;;;;;;;;;;;;;5065972;28;1146;-77
2021/12/26 12:59:33;;;;;;;;;;;;;;;;;;5064582;28;1324;-79
2021/12/26 13:01:59;;;;;;;;;;;;;;;;;;5067179;28;1260;-77
2021/12/26 13:04:45;;;;;;;;;;;;;;;;;;5085606;28;1156;-76
2021/12/26 13:07:33;;;;;;;;;;;;;;;;;;5071584;28;1901;-77
2021/12/26 13:10:00;;;;;;;;;;;;;;;;;;5062257;28;1286;-76
2021/12/26 13:12:26;;;;;;;;;;;;;;;;;;5069319;28;1291;-77
2021/12/26 13:14:59;;;;;;;;;;;;;;;;;;5065454;28;1322;-75
2021/12/26 13:17:30;;;;;;;;;;;;;;;;;;5066930;28;1213;-75
2021/12/26 13:19:58;;;;;;;;;;;;;;;;;;5066511;28;1216;-75
2021/12/26 13:22:36;;;;;;;;;;;;;;;;;;5070462;28;1219;-75
2021/12/26 13:25:02;;;;;;;;;;;;;;;;;;5089474;28;1196;-75
2021/12/26 13:27:27;;;;;;;;;;;;;;;;;;5070335;28;1979;-75
2021/12/26 13:29:53;;;;;;;;;;;;;;;;;;5066617;28;1278;-75
2021/12/26 13:32:21;;;;;;;;;;;;;;;;;;5088504;28;1109;-74
2021/12/26 13:34:53;;;;;;;;;;;;;;;;;;5068768;28;1224;-76
2021/12/26 13:37:18;;;;;;;;;;;;;;;;;;5052943;28;1379;-75
2021/12/26 13:39:44;;;;;;;;;;;;;;;;;;5068765;28;1394;-74
2021/12/26 13:42:09;;;;;;;;;;;;;;;;;;5053667;28;1409;-76
2021/12/26 13:44:43;;;;;;;;;;;;;;;;;;5067042;28;1284;-75
2021/12/26 13:47:15;;;;;;;;;;;;;;;;;;5069954;28;1918;-75
2021/12/26 13:49:40;;;;;;;;;;;;;;;;;;5065235;28;1294;-75
2021/12/26 13:52:09;;;;;;;;;;;;;;;;;;5066179;28;1170;-74
2021/12/26 13:54:49;;;;;;;;;;;;;;;;;;5065522;28;1212;-74
2021/12/26 13:57:16;;;;;;;;;;;;;;;;;;5083872;28;981;-75
2021/12/26 13:59:46;;;;;;;;;;;;;;;;;;5061952;28;1232;-75
2021/12/26 14:02:17;;;;;;;;;;;;;;;;;;5063806;28;1212;-74
2021/12/26 14:04:43;;;;;;;;;;;;;;;;;;5062389;28;1270;-74
2021/12/26 14:07:10;;;;;;;;;;;;;;;;;;5081528;28;1894;-74
2021/12/26 14:09:42;;;;;;;;;;;;;;;;;;5049121;28;1153;-74
2021/12/26 14:12:08;;;;;;;;;;;;;;;;;;5063029;28;1216;-74
2021/12/26 14:14:37;;;;;;;;;;;;;;;;;;5045217;28;1263;-75
2021/12/26 14:17:16;;;;;;;;;;;;;;;;;;5063034;28;1160;-74
2021/12/26 14:20:01;;;;;;;;;;;;;;;;;;5061915;28;1073;-75
2021/12/26 14:22:27;;;;;;;;;;;;;;;;;;5062940;28;1368;-75
2021/12/26 14:24:52;;;;;;;;;;;;;;;;;;5041539;28;1374;-75
2021/12/26 14:27:20;;;;;;;;;;;;;;;;;;5081923;28;1905;-75
2021/12/26 14:29:45;;;;;;;;;;;;;;;;;;5061346;28;1393;-73
2021/12/26 14:32:16;;;;;;;;;;;;;;;;;;5078758;28;1149;-74
2021/12/26 14:34:44;;;;;;;;;;;;;;;;;;5061290;28;1169;-74
2021/12/26 14:37:09;;;;;;;;;;;;;;;;;;5077497;28;1248;-75
2021/12/26 14:39:44;;;;;;;;;;;;;;;;;;5063263;28;1351;-76
2021/12/26 14:42:09;;;;;;;;;;;;;;;;;;5062267;28;1309;-74
2021/12/26 14:44:44;;;;;;;;;;;;;;;;;;5061852;28;1354;-73
2021/12/26 14:47:17;;;;;;;;;;;;;;;;;;5061867;28;1987;-74
2021/12/26 14:49:47;;;;;;;;;;;;;;;;;;5061182;28;1360;-74
2021/12/26 14:52:14;;;;;;;;;;;;;;;;;;5064455;28;1222;-74
2021/12/26 14:54:47;;;;;;;;;;;;;;;;;;5082783;28;1220;-75
2021/12/26 14:57:32;;;;;;;;;;;;;;;;;;5063199;28;1156;-74
2021/12/26 15:00:17;;;;;;;;;;;;;;;;;;5060444;28;1173;-75
2021/12/26 15:02:50;;;;;;;;;;;;;;;;;;5076475;28;1257;-75
2021/12/26 15:05:15;;;;;;;;;;;;;;;;;;5059458;28;1167;-75
2021/12/26 15:07:50;;;;;;;;;;;;;;;;;;5058613;28;1965;-75
2021/12/26 15:10:17;;;;;;;;;;;;;;;;;;5067810;28;1215;-75
2021/12/26 15:12:48;;;;;;;;;;;;;;;;;;5068079;28;1311;-75
2021/12/26 15:15:13;;;;;;;;;;;;;;;;;;5085815;28;1176;-75
2021/12/26 15:17:49;;;;;;;;;;;;;;;;;;5082564;28;1017;-74
2021/12/26 15:20:22;;;;;;;;;;;;;;;;;;5084899;28;1203;-74
2021/12/26 15:22:48;;;;;;;;;;;;;;;;;;5084594;28;1215;-74
2021/12/26 15:25:13;;;;;;;;;;;;;;;;;;5051464;28;1322;-75
2021/12/26 15:27:38;;;;;;;;;;;;;;;;;;5066909;28;1972;-75
2021/12/26 15:30:20;;;;;;;;;;;;;;;;;;5082972;28;1207;-75
2021/12/26 15:32:47;;;;;;;;;;;;;;;;;;5064336;28;1455;-75
2021/12/26 15:35:12;;;;;;;;;;;;;;;;;;5066073;28;1442;-74
2021/12/26 15:37:37;;;;;;;;;;;;;;;;;;5066723;28;1189;-75
2021/12/26 15:40:04;;;;;;;;;;;;;;;;;;5083823;28;1236;-75
2021/12/26 15:42:29;;;;;;;;;;;;;;;;;;5066055;28;1229;-74
2021/12/26 15:44:55;;;;;;;;;;;;;;;;;;5056206;28;1230;-77
2021/12/26 15:47:23;;;;;;;;;;;;;;;;;;5056304;28;1910;-74
2021/12/26 15:49:49;;;;;;;;;;;;;;;;;;5068256;28;1168;-77
2021/12/26 15:52:14;;;;;;;;;;;;;;;;;;5051718;28;1504;-75
2021/12/26 15:54:40;;;;;;;;;;;;;;;;;;5085537;28;1192;-75
2021/12/26 15:57:06;;;;;;;;;;;;;;;;;;5065911;28;1219;-75
2021/12/26 15:59:32;;;;;;;;;;;;;;;;;;5050445;28;1442;-75
2021/12/26 16:01:57;;;;;;;;;;;;;;;;;;5065661;28;1357;-76
2021/12/26 16:04:22;;;;;;;;;;;;;;;;;;5064854;28;1179;-75
2021/12/26 16:06:48;;;;;;;;;;;;;;;;;;5050549;28;1945;-75
2021/12/26 16:09:15;;;;;;;;;;;;;;;;;;5049250;28;1324;-75
2021/12/26 16:11:41;;;;;;;;;;;;;;;;;;5086249;28;1152;-75
2021/12/26 16:14:07;;;;;;;;;;;;;;;;;;5076496;28;1343;-75
2021/12/26 16:16:32;;;;;;;;;;;;;;;;;;5047458;28;1201;-75
2021/12/26 16:18:58;;;;;;;;;;;;;;;;;;5027566;28;1221;-75
2021/12/26 16:21:23;;;;;;;;;;;;;;;;;;5047186;28;1299;-76
2021/12/26 16:23:48;;;;;;;;;;;;;;;;;;5064620;28;1158;-76
2021/12/26 16:26:14;;;;;;;;;;;;;;;;;;5064247;28;1955;-76
2021/12/26 16:28:39;;;;;;;;;;;;;;;;;;5047579;28;1221;-76
2021/12/26 16:31:05;;;;;;;;;;;;;;;;;;5029159;28;1342;-74
2021/12/26 16:33:31;;;;;;;;;;;;;;;;;;5064461;28;1196;-74
2021/12/26 16:35:56;;;;;;;;;;;;;;;;;;5046998;28;1267;-75
2021/12/26 16:38:22;;;;;;;;;;;;;;;;;;5047302;28;1098;-74
2021/12/26 16:40:47;;;;;;;;;;;;;;;;;;5047690;28;1225;-74
2021/12/26 16:43:17;;;;;;;;;;;;;;;;;;5054309;28;1348;-75
2021/12/26 16:45:42;;;;;;;;;;;;;;;;;;5067235;28;1297;-75
2021/12/26 16:48:08;;;;;;;;;;;;;;;;;;5082143;28;2000;-76
2021/12/26 16:50:35;;;;;;;;;;;;;;;;;;5085512;28;1130;-74
2021/12/26 16:53:01;;;;;;;;;;;;;;;;;;5048492;28;1341;-74
2021/12/26 16:55:26;;;;;;;;;;;;;;;;;;5050849;28;1221;-74
2021/12/26 16:57:52;;;;;;;;;;;;;;;;;;5089820;28;1149;-74
2021/12/26 17:00:17;;;;;;;;;;;;;;;;;;5067844;28;1167;-76
2021/12/26 17:02:42;;;;;;;;;;;;;;;;;;5088043;28;1144;-75
2021/12/26 17:05:08;;;;;;;;;;;;;;;;;;5069846;28;1177;-76
2021/12/26 17:07:33;;;;;;;;;;;;;;;;;;5070813;28;1947;-76
2021/12/26 17:09:59;;;;;;;;;;;;;;;;;;5069919;28;1269;-76